createdAt,value
2023-05-21T00:00:12.236Z,10.45
2023-05-21T00:02:41.105Z,10.02
2023-05-21T00:05:15.594Z,9.85
2023-05-21T00:07:44.167Z,11.30
2023-05-21T00:10:15.856Z,11.30
2023-05-21T00:12:46.526Z,10.98
2023-05-21T00:15:14.644Z,11.27
2023-05-21T00:17:43.276Z,11.07
2023-05-21T00:20:12.850Z,11.13
2023-05-21T00:22:42.436Z,11.23
2023-05-21T00:25:11.630Z,12.32
2023-05-21T00:27:41.189Z,11.35
2023-05-21T00:30:09.820Z,11.48
2023-05-21T00:32:37.957Z,12.93
2023-05-21T00:35:06.822Z,11.63
2023-05-21T00:37:35.065Z,12.40
2023-05-21T00:40:05.242Z,12.55
2023-05-21T00:42:33.724Z,12.18
2023-05-21T00:45:03.870Z,12.80
2023-05-21T00:47:32.399Z,12.57
2023-05-21T00:50:01.066Z,13.07
2023-05-21T00:52:29.160Z,13.07
2023-05-21T00:54:57.277Z,12.70
2023-05-21T00:57:28.006Z,13.25
2023-05-21T00:59:56.440Z,12.93
2023-05-21T01:02:26.121Z,13.02
2023-05-21T01:04:56.246Z,12.65
2023-05-21T01:07:24.401Z,13.32
2023-05-21T01:09:54.166Z,13.40
2023-05-21T01:12:24.238Z,13.43
2023-05-21T01:14:53.275Z,12.55
2023-05-21T01:17:24.349Z,12.98
2023-05-21T01:19:54.750Z,12.95
2023-05-21T01:22:25.232Z,13.77
2023-05-21T01:24:56.132Z,13.32
2023-05-21T01:27:24.250Z,12.57
2023-05-21T01:29:52.261Z,12.95
2023-05-21T01:32:27.958Z,13.02
2023-05-21T01:35:01.826Z,12.68
2023-05-21T01:37:33.756Z,13.48
2023-05-21T01:40:09.966Z,12.93
2023-05-21T01:42:40.292Z,13.65
2023-05-21T01:45:09.615Z,12.75
2023-05-21T01:47:38.538Z,12.32
2023-05-21T01:50:07.682Z,12.40
2023-05-21T01:52:35.891Z,12.27
2023-05-21T01:55:05.703Z,12.60
2023-05-21T01:57:33.789Z,12.82
2023-05-21T02:00:02.023Z,13.23
2023-05-21T02:02:30.219Z,12.48
2023-05-21T02:04:58.261Z,12.40
2023-05-21T02:07:28.900Z,12.27
2023-05-21T02:09:57.013Z,12.80
2023-05-21T02:12:28.343Z,13.90
2023-05-21T02:14:57.612Z,14.38
2023-05-21T02:17:26.187Z,13.52
2023-05-21T02:19:54.266Z,13.75
2023-05-21T02:22:22.298Z,15.02
2023-05-21T02:24:50.384Z,13.88
2023-05-21T02:27:18.538Z,14.93
2023-05-21T02:29:47.943Z,14.82
2023-05-21T02:32:16.916Z,15.30
2023-05-21T02:34:47.258Z,15.85
2023-05-21T02:37:15.308Z,16.90
2023-05-21T02:39:43.289Z,16.73
2023-05-21T02:42:11.304Z,15.80
2023-05-21T02:44:39.284Z,17.38
2023-05-21T02:47:10.374Z,16.65
2023-05-21T02:49:38.356Z,16.95
2023-05-21T02:52:06.804Z,16.13
2023-05-21T02:54:34.822Z,15.85
2023-05-21T02:57:02.843Z,15.35
2023-05-21T02:59:30.929Z,16.13
2023-05-21T03:01:58.980Z,16.10
2023-05-21T03:04:29.130Z,15.98
2023-05-21T03:06:58.567Z,15.25
2023-05-21T03:09:26.605Z,15.70
2023-05-21T03:11:54.683Z,16.42
2023-05-21T03:14:23.036Z,16.63
2023-05-21T03:16:51.501Z,16.33
2023-05-21T03:19:20.851Z,15.50
2023-05-21T03:21:50.590Z,14.90
2023-05-21T03:24:18.701Z,14.52
2023-05-21T03:26:48.196Z,16.60
2023-05-21T03:29:16.390Z,17.40
2023-05-21T03:31:44.569Z,17.08
2023-05-21T03:34:12.581Z,16.48
2023-05-21T03:36:40.839Z,17.23
2023-05-21T03:39:10.587Z,17.17
2023-05-21T03:41:38.650Z,17.48
2023-05-21T03:44:06.953Z,17.88
2023-05-21T03:46:34.932Z,17.50
2023-05-21T03:49:02.983Z,17.42
2023-05-21T03:51:31.742Z,17.65
2023-05-21T03:54:00.218Z,17.27
2023-05-21T03:56:29.642Z,17.75
2023-05-21T03:58:57.580Z,18.17
2023-05-21T04:01:25.631Z,17.13
2023-05-21T04:03:53.980Z,16.88
2023-05-21T04:06:22.790Z,16.50
2023-05-21T04:08:51.410Z,16.80
2023-05-21T04:11:19.415Z,16.33
2023-05-21T04:13:49.122Z,17.05
2023-05-21T04:16:19.365Z,16.67
2023-05-21T04:18:48.046Z,17.60
2023-05-21T04:21:16.324Z,16.63
2023-05-21T04:23:44.436Z,16.73
2023-05-21T04:26:12.813Z,17.67
2023-05-21T04:28:42.011Z,17.42
2023-05-21T04:31:13.761Z,17.48
2023-05-21T04:33:45.905Z,17.67
2023-05-21T04:36:17.363Z,18.08
2023-05-21T04:38:45.793Z,18.00
2023-05-21T04:41:15.088Z,18.52
2023-05-21T04:43:44.231Z,18.88
2023-05-21T04:46:14.020Z,19.30
2023-05-21T04:48:42.280Z,18.83
2023-05-21T04:51:10.316Z,18.77
2023-05-21T04:53:38.828Z,19.08
2023-05-21T04:56:07.365Z,19.23
2023-05-21T04:58:35.381Z,17.95
2023-05-21T05:01:04.222Z,18.33
2023-05-21T05:03:33.737Z,18.25
2023-05-21T05:06:04.301Z,18.15
2023-05-21T05:08:32.368Z,18.23
2023-05-21T05:11:00.384Z,18.33
2023-05-21T05:13:28.322Z,17.52
2023-05-21T05:15:57.490Z,17.60
2023-05-21T05:18:25.583Z,17.27
2023-05-21T05:20:54.953Z,17.33
2023-05-21T05:23:22.932Z,16.98
2023-05-21T05:25:50.888Z,16.70
2023-05-21T05:28:18.919Z,18.30
2023-05-21T05:30:47.076Z,17.92
2023-05-21T05:33:15.175Z,16.95
2023-05-21T05:35:43.195Z,17.98
2023-05-21T05:38:13.595Z,18.08
2023-05-21T05:40:41.571Z,17.63
2023-05-21T05:43:09.740Z,18.50
2023-05-21T05:45:37.989Z,17.17
2023-05-21T05:48:06.641Z,16.95
2023-05-21T05:50:34.757Z,17.15
2023-05-21T05:53:02.761Z,17.20
2023-05-21T05:55:32.190Z,16.55
2023-05-21T05:58:00.283Z,15.93
2023-05-21T06:00:28.349Z,16.63
2023-05-21T06:02:56.444Z,15.45
2023-05-21T06:05:24.609Z,15.55
2023-05-21T06:07:52.646Z,14.52
2023-05-21T06:10:21.568Z,13.73
2023-05-21T06:12:50.908Z,15.20
2023-05-21T06:15:19.489Z,14.32
2023-05-21T06:17:47.531Z,14.57
2023-05-21T06:20:16.444Z,15.73
2023-05-21T06:22:44.545Z,15.55
2023-05-21T06:25:12.528Z,16.58
2023-05-21T06:27:40.565Z,16.23
2023-05-21T06:30:10.735Z,15.50
2023-05-21T06:32:38.795Z,13.93
2023-05-21T06:35:11.020Z,14.52
2023-05-21T06:37:39.063Z,14.15
2023-05-21T06:40:08.649Z,13.68
2023-05-21T06:42:36.649Z,12.75
2023-05-21T06:45:05.062Z,12.93
2023-05-21T06:47:34.473Z,14.15
2023-05-21T06:50:02.550Z,14.35
2023-05-21T06:52:31.684Z,13.82
2023-05-21T06:54:59.831Z,13.70
2023-05-21T06:57:27.855Z,14.43
2023-05-21T06:59:55.839Z,14.52
2023-05-21T07:02:23.998Z,13.23
2023-05-21T07:04:55.662Z,13.32
2023-05-21T07:07:23.853Z,14.05
2023-05-21T07:09:51.925Z,12.73
2023-05-21T07:12:19.958Z,12.35
2023-05-21T07:14:48.013Z,12.27
2023-05-21T07:17:16.033Z,11.88
2023-05-21T07:19:44.121Z,12.27
2023-05-21T07:22:13.708Z,11.98
2023-05-21T07:24:41.720Z,12.38
2023-05-21T07:27:24.658Z,11.65
2023-05-21T07:29:53.950Z,11.63
2023-05-21T07:32:22.027Z,12.77
2023-05-21T07:34:51.558Z,10.98
2023-05-21T07:37:22.275Z,10.77
2023-05-21T07:39:50.371Z,11.70
2023-05-21T07:42:18.707Z,11.25
2023-05-21T07:44:46.688Z,12.10
2023-05-21T07:47:14.669Z,11.93
2023-05-21T07:49:42.731Z,11.82
2023-05-21T07:52:10.833Z,12.10
2023-05-21T07:54:40.242Z,12.05
2023-05-21T07:57:08.299Z,11.98
2023-05-21T07:59:36.277Z,11.73
2023-05-21T08:02:04.462Z,11.70
2023-05-21T08:04:32.629Z,11.27
2023-05-21T08:07:00.728Z,11.57
2023-05-21T08:09:28.730Z,12.95
2023-05-21T08:11:58.191Z,12.77
2023-05-21T08:14:26.233Z,12.82
2023-05-21T08:16:54.223Z,12.32
2023-05-21T08:19:22.286Z,11.75
2023-05-21T08:21:52.718Z,12.18
2023-05-21T08:24:21.043Z,12.10
2023-05-21T08:26:50.476Z,11.30
2023-05-21T08:29:20.175Z,12.70
2023-05-21T08:31:48.198Z,12.68
2023-05-21T08:34:16.435Z,12.07
2023-05-21T08:36:46.125Z,12.48
2023-05-21T08:39:14.129Z,12.52
2023-05-21T08:41:49.375Z,12.02
2023-05-21T08:44:22.079Z,12.45
2023-05-21T08:46:51.889Z,13.45
2023-05-21T08:49:27.074Z,12.52
2023-05-21T08:51:56.302Z,13.30
2023-05-21T08:54:24.958Z,12.82
2023-05-21T08:56:54.515Z,12.88
2023-05-21T08:59:24.669Z,13.02
2023-05-21T09:01:53.884Z,13.65
2023-05-21T09:04:22.522Z,13.07
2023-05-21T09:06:52.211Z,13.15
2023-05-21T09:09:27.260Z,13.52
2023-05-21T09:11:55.584Z,12.02
2023-05-21T09:14:25.599Z,13.05
2023-05-21T09:16:53.662Z,12.93
2023-05-21T09:19:22.159Z,12.60
2023-05-21T09:21:52.461Z,12.90
2023-05-21T09:24:23.668Z,12.23
2023-05-21T09:26:52.543Z,12.05
2023-05-21T09:29:20.707Z,12.05
2023-05-21T09:31:51.467Z,12.52
2023-05-21T09:34:19.644Z,11.82
2023-05-21T09:36:49.700Z,12.30
2023-05-21T09:39:29.446Z,13.25
2023-05-21T09:41:58.436Z,12.73
2023-05-21T09:44:26.484Z,12.95
2023-05-21T09:46:59.955Z,12.20
2023-05-21T09:49:28.420Z,12.88
2023-05-21T09:51:57.652Z,13.20
2023-05-21T09:54:25.946Z,15.13
2023-05-21T09:56:54.139Z,14.05
2023-05-21T09:59:22.579Z,12.13
2023-05-21T10:01:53.057Z,11.93
2023-05-21T10:04:24.230Z,11.80
2023-05-21T10:06:53.456Z,12.13
2023-05-21T10:09:23.521Z,11.65
2023-05-21T10:11:55.769Z,11.57
2023-05-21T10:14:26.571Z,11.55
2023-05-21T10:16:55.854Z,12.30
2023-05-21T10:19:25.868Z,12.27
2023-05-21T10:21:57.293Z,12.55
2023-05-21T10:24:28.441Z,11.82
2023-05-21T10:27:03.269Z,12.38
2023-05-21T10:29:36.460Z,12.23
2023-05-21T10:32:06.668Z,10.93
2023-05-21T10:34:45.809Z,10.90
2023-05-21T10:37:17.998Z,10.90
2023-05-21T10:39:46.948Z,11.77
2023-05-21T10:42:22.634Z,11.70
2023-05-21T10:45:14.254Z,11.38
2023-05-21T10:48:00.075Z,11.30
2023-05-21T10:50:57.412Z,10.15
2023-05-21T10:53:34.543Z,10.52
2023-05-21T10:56:15.556Z,10.68
2023-05-21T10:58:57.702Z,10.93
2023-05-21T11:01:29.593Z,11.27
2023-05-21T11:03:57.791Z,10.80
2023-05-21T11:06:28.388Z,10.60
2023-05-21T11:08:56.803Z,9.82
2023-05-21T11:11:51.732Z,9.93
2023-05-21T11:14:36.812Z,8.85
2023-05-21T11:17:12.698Z,9.70
2023-05-21T11:19:42.552Z,10.93
2023-05-21T11:22:24.442Z,10.73
2023-05-21T11:24:53.293Z,8.57
2023-05-21T11:27:37.640Z,8.57
2023-05-21T11:30:08.141Z,8.50
2023-05-21T11:32:40.976Z,9.00
2023-05-21T11:35:09.954Z,10.52
2023-05-21T11:37:43.640Z,8.70
2023-05-21T11:40:19.669Z,8.93
2023-05-21T11:42:52.573Z,9.50
2023-05-21T11:45:21.970Z,8.43
2023-05-21T11:47:55.964Z,8.85
2023-05-21T11:50:24.069Z,9.15
2023-05-21T11:52:54.408Z,8.93
2023-05-21T11:55:23.496Z,9.05
2023-05-21T11:57:54.653Z,8.88
2023-05-21T12:00:23.164Z,9.13
2023-05-21T12:02:53.204Z,7.95
2023-05-21T12:05:22.161Z,8.35
2023-05-21T12:07:50.768Z,7.95
2023-05-21T12:10:22.904Z,8.18
2023-05-21T12:12:56.430Z,8.30
2023-05-21T12:15:27.038Z,7.75
2023-05-21T12:17:56.914Z,7.97
2023-05-21T12:20:27.932Z,8.45
2023-05-21T12:22:57.715Z,8.10
2023-05-21T12:25:27.485Z,7.95
2023-05-21T12:27:58.328Z,7.38
2023-05-21T12:30:27.216Z,7.35
2023-05-21T12:32:58.577Z,7.45
2023-05-21T12:35:26.780Z,7.53
2023-05-21T12:37:54.868Z,7.53
2023-05-21T12:40:22.900Z,7.47
2023-05-21T12:42:52.696Z,7.00
2023-05-21T12:45:22.781Z,7.40
2023-05-21T12:47:56.052Z,7.45
2023-05-21T12:50:24.811Z,6.95
2023-05-21T12:52:56.169Z,7.45
2023-05-21T12:55:26.330Z,7.25
2023-05-21T12:58:05.151Z,7.40
2023-05-21T13:00:34.479Z,7.05
2023-05-21T13:03:06.379Z,7.25
2023-05-21T13:05:34.930Z,6.72
2023-05-21T13:08:03.024Z,6.80
2023-05-21T13:10:31.173Z,7.10
2023-05-21T13:12:59.292Z,7.05
2023-05-21T13:15:28.706Z,7.38
2023-05-21T13:17:57.197Z,7.15
2023-05-21T13:20:27.633Z,6.82
2023-05-21T13:22:56.196Z,7.05
2023-05-21T13:25:28.828Z,6.63
2023-05-21T13:27:57.457Z,8.23
2023-05-21T13:30:25.542Z,6.85
2023-05-21T13:32:55.742Z,6.60
2023-05-21T13:35:24.035Z,6.43
2023-05-21T13:37:52.209Z,6.43
2023-05-21T13:40:20.315Z,6.38
2023-05-21T13:42:49.684Z,6.55
2023-05-21T13:45:20.962Z,6.70
2023-05-21T13:47:49.775Z,6.30
2023-05-21T13:50:19.370Z,6.45
2023-05-21T13:52:47.578Z,6.38
2023-05-21T13:55:16.940Z,6.22
2023-05-21T13:57:45.667Z,6.20
2023-05-21T14:00:15.473Z,6.07
2023-05-21T14:02:44.512Z,5.70
2023-05-21T14:05:13.512Z,5.63
2023-05-21T14:07:43.091Z,6.30
2023-05-21T14:10:11.684Z,6.22
2023-05-21T14:12:40.694Z,6.72
2023-05-21T14:15:09.780Z,6.38
2023-05-21T14:17:40.225Z,6.20
2023-05-21T14:20:09.831Z,6.15
2023-05-21T14:22:38.591Z,6.70
2023-05-21T14:25:08.774Z,5.97
2023-05-21T14:27:38.440Z,6.32
2023-05-21T14:30:07.606Z,6.40
2023-05-21T14:32:35.688Z,6.30
2023-05-21T14:35:04.317Z,6.65
2023-05-21T14:37:32.364Z,6.45
2023-05-21T14:40:00.476Z,6.47
2023-05-21T14:42:30.765Z,6.28
2023-05-21T14:44:59.055Z,6.55
2023-05-21T14:47:27.220Z,6.53
2023-05-21T14:49:55.257Z,6.50
2023-05-21T14:52:23.489Z,6.43
2023-05-21T14:54:54.652Z,6.88
2023-05-21T14:57:22.641Z,6.50
2023-05-21T14:59:52.093Z,6.30
2023-05-21T15:02:20.103Z,6.43
2023-05-21T15:04:48.183Z,6.70
2023-05-21T15:07:16.354Z,6.88
2023-05-21T15:09:44.412Z,6.50
2023-05-21T15:12:12.425Z,6.18
2023-05-21T15:14:40.999Z,6.63
2023-05-21T15:17:10.608Z,6.45
2023-05-21T15:19:39.579Z,6.63
2023-05-21T15:22:07.726Z,6.60
2023-05-21T15:24:36.021Z,6.15
2023-05-21T15:27:09.106Z,6.32
2023-05-21T15:29:37.340Z,6.63
2023-05-21T15:32:08.012Z,6.57
2023-05-21T15:34:37.650Z,6.40
2023-05-21T15:37:06.094Z,6.70
2023-05-21T15:39:34.074Z,6.70
2023-05-21T15:42:02.036Z,5.95
2023-05-21T15:44:29.998Z,6.07
2023-05-21T15:46:58.136Z,6.63
2023-05-21T15:49:26.210Z,6.40
2023-05-21T15:51:57.380Z,7.30
2023-05-21T15:54:25.783Z,6.60
2023-05-21T15:56:53.883Z,7.57
2023-05-21T15:59:21.978Z,6.80
2023-05-21T16:01:50.144Z,6.68
2023-05-21T16:04:20.203Z,6.28
2023-05-21T16:06:48.423Z,7.10
2023-05-21T16:09:17.850Z,6.57
2023-05-21T16:11:46.071Z,6.78
2023-05-21T16:14:14.150Z,5.78
2023-05-21T16:16:42.248Z,6.85
2023-05-21T16:19:10.482Z,6.25
2023-05-21T16:21:38.596Z,6.53
2023-05-21T16:24:07.332Z,6.22
2023-05-21T16:26:36.867Z,6.65
2023-05-21T16:29:04.967Z,6.07
2023-05-21T16:31:33.017Z,6.50
2023-05-21T16:34:01.180Z,7.07
2023-05-21T16:36:29.296Z,6.57
2023-05-21T16:38:57.301Z,6.68
2023-05-21T16:41:25.397Z,6.38
2023-05-21T16:43:55.409Z,6.00
2023-05-21T16:46:23.498Z,6.50
2023-05-21T16:48:51.733Z,6.32
2023-05-21T16:51:19.849Z,6.35
2023-05-21T16:53:47.879Z,6.13
2023-05-21T16:56:16.050Z,6.30
2023-05-21T16:58:44.102Z,6.40
2023-05-21T17:01:13.788Z,6.28
2023-05-21T17:03:43.409Z,6.28
2023-05-21T17:06:11.594Z,6.10
2023-05-21T17:08:39.809Z,6.05
2023-05-21T17:11:07.908Z,5.78
2023-05-21T17:13:35.989Z,5.50
2023-05-21T17:16:04.163Z,5.88
2023-05-21T17:18:33.620Z,5.68
2023-05-21T17:21:01.741Z,6.75
2023-05-21T17:23:29.916Z,6.80
2023-05-21T17:25:57.942Z,6.53
2023-05-21T17:28:26.038Z,6.43
2023-05-21T17:30:54.211Z,6.40
2023-05-21T17:33:22.450Z,6.55
2023-05-21T17:35:51.887Z,6.25
2023-05-21T17:38:20.075Z,5.95
2023-05-21T17:40:48.839Z,5.53
2023-05-21T17:43:16.798Z,6.20
2023-05-21T17:45:44.838Z,6.35
2023-05-21T17:48:13.177Z,6.50
2023-05-21T17:50:41.615Z,6.45
2023-05-21T17:53:11.122Z,6.50
2023-05-21T17:55:39.369Z,6.43
2023-05-21T17:58:09.781Z,6.90
2023-05-21T18:00:37.847Z,6.50
2023-05-21T18:03:06.230Z,6.15
2023-05-21T18:05:34.334Z,6.88
2023-05-21T18:08:02.893Z,6.70
2023-05-21T18:10:32.311Z,6.78
2023-05-21T18:13:03.628Z,6.53
2023-05-21T18:15:33.085Z,6.38
2023-05-21T18:18:01.339Z,6.18
2023-05-21T18:20:30.062Z,6.03
2023-05-21T18:22:58.195Z,5.65
2023-05-21T18:25:26.265Z,5.45
2023-05-21T18:27:55.816Z,5.45
2023-05-21T18:30:23.993Z,5.38
2023-05-21T18:32:52.065Z,5.15
2023-05-21T18:35:20.253Z,5.32
2023-05-21T18:37:48.719Z,5.40
2023-05-21T18:40:17.522Z,5.53
2023-05-21T18:42:45.562Z,5.10
2023-05-21T18:45:16.124Z,5.18
2023-05-21T18:47:44.673Z,4.82
2023-05-21T18:50:14.663Z,4.60
2023-05-21T18:52:42.861Z,4.22
2023-05-21T18:55:11.217Z,4.03
2023-05-21T18:57:39.260Z,4.82
2023-05-21T19:00:09.572Z,5.80
2023-05-21T19:02:39.237Z,5.97
2023-05-21T19:05:08.423Z,6.65
2023-05-21T19:07:36.808Z,6.68
2023-05-21T19:10:05.576Z,7.00
2023-05-21T19:12:35.833Z,7.30
2023-05-21T19:15:04.144Z,6.78
2023-05-21T19:17:33.497Z,7.53
2023-05-21T19:20:05.469Z,7.20
2023-05-21T19:22:33.745Z,7.03
2023-05-21T19:25:02.012Z,6.90
2023-05-21T19:27:30.219Z,6.85
2023-05-21T19:29:58.348Z,7.00
2023-05-21T19:32:26.378Z,7.50
2023-05-21T19:34:54.474Z,6.75
2023-05-21T19:37:23.953Z,6.65
2023-05-21T19:39:52.003Z,6.63
2023-05-21T19:42:25.661Z,6.80
2023-05-21T19:44:53.738Z,7.20
2023-05-21T19:47:21.765Z,7.00
2023-05-21T19:49:49.806Z,6.72
2023-05-21T19:52:18.103Z,6.95
2023-05-21T19:54:47.527Z,6.90
2023-05-21T19:57:15.546Z,6.60
2023-05-21T19:59:43.703Z,6.80
2023-05-21T20:02:15.171Z,7.38
2023-05-21T20:04:43.320Z,6.93
2023-05-21T20:07:11.593Z,7.47
2023-05-21T20:09:40.413Z,6.97
2023-05-21T20:12:10.615Z,6.40
2023-05-21T20:14:38.725Z,7.32
2023-05-21T20:17:07.220Z,6.78
2023-05-21T20:19:37.869Z,7.20
2023-05-21T20:22:06.662Z,6.10
2023-05-21T20:24:35.934Z,6.53
2023-05-21T20:27:04.196Z,6.80
2023-05-21T20:29:34.933Z,14.55
2023-05-21T20:32:06.662Z,26.88
2023-05-21T20:34:58.285Z,23.08
2023-05-21T20:37:36.187Z,10.30
2023-05-21T20:40:07.181Z,8.20
2023-05-21T20:42:36.562Z,7.57
2023-05-21T20:45:22.196Z,8.30
2023-05-21T20:47:50.368Z,8.63
2023-05-21T20:50:21.728Z,9.63
2023-05-21T20:52:52.905Z,8.50
2023-05-21T20:55:21.202Z,9.10
2023-05-21T20:57:49.394Z,8.60
2023-05-21T21:00:21.478Z,8.35
2023-05-21T21:02:49.866Z,7.75
2023-05-21T21:05:20.019Z,7.82
2023-05-21T21:07:48.082Z,8.10
2023-05-21T21:10:16.152Z,7.50
2023-05-21T21:12:46.830Z,7.60
2023-05-21T21:15:15.310Z,7.53
2023-05-21T21:17:44.845Z,8.05
2023-05-21T21:20:16.757Z,8.73
2023-05-21T21:22:44.989Z,8.35
2023-05-21T21:25:14.713Z,7.97
2023-05-21T21:27:43.406Z,8.73
2023-05-21T21:30:12.368Z,8.30
2023-05-21T21:32:45.477Z,8.45
2023-05-21T21:35:24.861Z,8.77
2023-05-21T21:38:00.014Z,8.40
2023-05-21T21:40:29.009Z,8.43
2023-05-21T21:43:04.792Z,8.82
2023-05-21T21:45:37.828Z,9.13
2023-05-21T21:48:07.240Z,9.30
2023-05-21T21:50:37.269Z,9.82
2023-05-21T21:53:07.633Z,10.65
2023-05-21T21:55:38.406Z,10.23
2023-05-21T21:58:07.104Z,12.13
2023-05-21T22:00:43.732Z,12.52
2023-05-21T22:03:16.800Z,11.30
2023-05-21T22:05:47.578Z,11.18
2023-05-21T22:08:16.426Z,10.38
2023-05-21T22:10:45.146Z,11.52
2023-05-21T22:13:17.118Z,11.23
2023-05-21T22:15:49.194Z,10.75
2023-05-21T22:18:28.227Z,10.38
2023-05-21T22:21:09.558Z,10.32
2023-05-21T22:23:38.532Z,10.82
2023-05-21T22:26:07.472Z,10.52
2023-05-21T22:28:36.013Z,11.07
2023-05-21T22:31:04.553Z,10.80
2023-05-21T22:33:33.010Z,10.98
2023-05-21T22:36:07.373Z,10.48
2023-05-21T22:38:36.927Z,10.48
2023-05-21T22:41:08.625Z,10.13
2023-05-21T22:43:42.129Z,10.40
2023-05-21T22:46:21.903Z,10.75
2023-05-21T22:48:56.662Z,10.30
2023-05-21T22:51:28.817Z,10.70
2023-05-21T22:53:59.468Z,10.85
2023-05-21T22:56:30.052Z,11.18
2023-05-21T22:58:59.754Z,11.10
2023-05-21T23:01:31.162Z,11.00
2023-05-21T23:03:59.785Z,11.27
2023-05-21T23:06:30.065Z,10.80
2023-05-21T23:09:00.506Z,10.70
2023-05-21T23:11:29.500Z,11.20
2023-05-21T23:14:11.477Z,10.82
2023-05-21T23:16:45.306Z,10.07
2023-05-21T23:19:17.265Z,9.93
2023-05-21T23:21:47.095Z,10.98
2023-05-21T23:24:16.102Z,10.45
2023-05-21T23:26:44.272Z,10.68
2023-05-21T23:29:12.676Z,11.55
2023-05-21T23:31:41.008Z,10.82
2023-05-21T23:34:09.652Z,10.80
2023-05-21T23:36:37.894Z,10.63
2023-05-21T23:39:07.346Z,10.05
2023-05-21T23:41:37.976Z,10.18
2023-05-21T23:44:08.409Z,10.10
2023-05-21T23:46:36.520Z,10.25
2023-05-21T23:49:06.817Z,10.60
2023-05-21T23:51:34.986Z,10.63
2023-05-21T23:54:03.062Z,9.82
2023-05-21T23:56:32.811Z,10.35
2023-05-21T23:59:00.986Z,10.30
